createdAt,value
2022-08-29T00:03:01.229Z,36.50
2022-08-29T00:06:04.851Z,31.50
2022-08-29T00:09:06.788Z,32.80
2022-08-29T00:12:08.923Z,31.20
2022-08-29T00:15:11.968Z,30.20
2022-08-29T00:18:19.421Z,34.40
2022-08-29T00:21:21.396Z,37.00
2022-08-29T00:24:23.178Z,36.00
2022-08-29T00:27:25.451Z,34.00
2022-08-29T00:30:27.310Z,29.90
2022-08-29T00:33:29.202Z,29.60
2022-08-29T00:36:31.052Z,27.90
2022-08-29T00:39:33.150Z,24.10
2022-08-29T00:42:36.717Z,23.10
2022-08-29T00:45:47.005Z,25.30
2022-08-29T00:48:54.655Z,27.00
2022-08-29T00:51:58.700Z,25.30
2022-08-29T00:55:04.032Z,26.40
2022-08-29T00:58:18.688Z,25.70
2022-08-29T01:01:21.443Z,24.90
2022-08-29T01:04:24.529Z,25.30
2022-08-29T01:07:27.068Z,25.60
2022-08-29T01:10:47.378Z,25.00
2022-08-29T01:13:49.625Z,22.90
2022-08-29T01:16:52.675Z,23.00
2022-08-29T01:20:06.275Z,22.40
2022-08-29T01:23:15.643Z,20.50
2022-08-29T01:26:17.439Z,19.40
2022-08-29T01:29:19.178Z,21.50
2022-08-29T01:32:22.581Z,21.40
2022-08-29T01:35:25.463Z,20.50
2022-08-29T01:38:29.974Z,20.60
2022-08-29T01:41:32.961Z,20.70
2022-08-29T01:44:34.636Z,21.00
2022-08-29T01:47:37.939Z,19.00
2022-08-29T01:50:40.005Z,18.00
2022-08-29T01:53:42.442Z,18.20
2022-08-29T01:56:47.485Z,18.60
2022-08-29T01:59:49.650Z,19.20
2022-08-29T02:02:52.046Z,20.60
2022-08-29T02:05:54.016Z,19.00
2022-08-29T02:08:56.065Z,19.30
2022-08-29T02:11:58.435Z,18.70
2022-08-29T02:15:00.530Z,19.00
2022-08-29T02:18:02.377Z,17.90
2022-08-29T02:21:04.707Z,18.90
2022-08-29T02:24:24.044Z,17.10
2022-08-29T02:27:27.122Z,16.10
2022-08-29T02:30:28.846Z,15.60
2022-08-29T02:33:31.524Z,15.10
2022-08-29T02:36:33.943Z,15.40
2022-08-29T02:39:36.186Z,14.70
2022-08-29T02:42:38.488Z,15.10
2022-08-29T02:45:41.875Z,15.20
2022-08-29T02:48:49.306Z,14.70
2022-08-29T02:52:04.693Z,15.10
2022-08-29T02:55:07.534Z,15.60
2022-08-29T02:58:09.493Z,14.70
2022-08-29T03:01:11.474Z,14.50
2022-08-29T03:04:13.530Z,15.10
2022-08-29T03:07:15.409Z,15.30
2022-08-29T03:10:17.331Z,16.50
2022-08-29T03:13:19.290Z,16.40
2022-08-29T03:16:21.128Z,16.80
2022-08-29T03:19:23.198Z,15.30
2022-08-29T03:22:26.237Z,14.10
2022-08-29T03:25:28.212Z,13.60
2022-08-29T03:28:30.439Z,13.10
2022-08-29T03:31:32.721Z,12.20
2022-08-29T03:34:34.873Z,12.70
2022-08-29T03:37:37.134Z,12.20
2022-08-29T03:40:41.229Z,12.10
2022-08-29T03:43:43.066Z,12.30
2022-08-29T03:46:45.480Z,12.80
2022-08-29T03:49:49.337Z,13.00
2022-08-29T03:52:51.547Z,12.70
2022-08-29T03:55:53.323Z,12.60
2022-08-29T03:58:55.896Z,13.30
2022-08-29T04:01:58.703Z,13.20
2022-08-29T04:05:10.034Z,12.30
2022-08-29T04:08:12.941Z,13.60
2022-08-29T04:11:16.147Z,15.30
2022-08-29T04:14:20.186Z,18.30
2022-08-29T04:17:21.854Z,19.10
2022-08-29T04:20:25.890Z,18.90
2022-08-29T04:23:28.071Z,18.50
2022-08-29T04:26:37.808Z,18.30
2022-08-29T04:29:39.973Z,17.90
2022-08-29T04:32:42.016Z,18.40
2022-08-29T04:35:44.057Z,19.20
2022-08-29T04:38:45.840Z,21.80
2022-08-29T04:41:47.685Z,23.40
2022-08-29T04:44:49.440Z,25.70
2022-08-29T04:47:51.616Z,25.50
2022-08-29T04:50:58.273Z,29.00
2022-08-29T04:54:00.228Z,28.70
2022-08-29T04:57:03.472Z,28.40
2022-08-29T05:00:14.042Z,27.50
2022-08-29T05:03:16.529Z,30.20
2022-08-29T05:06:22.628Z,29.00
2022-08-29T05:09:24.715Z,31.80
2022-08-29T05:12:28.313Z,30.60
2022-08-29T05:15:30.469Z,32.00
2022-08-29T05:18:32.253Z,33.00
2022-08-29T05:21:36.514Z,33.20
2022-08-29T05:24:38.543Z,31.60
2022-08-29T05:27:41.064Z,32.70
2022-08-29T05:30:42.769Z,32.70
2022-08-29T05:33:44.624Z,33.70
2022-08-29T05:36:46.377Z,33.20
2022-08-29T05:39:49.990Z,33.10
2022-08-29T05:42:51.696Z,32.30
2022-08-29T05:46:03.892Z,32.30
2022-08-29T05:49:05.920Z,31.90
2022-08-29T05:52:08.437Z,32.20
2022-08-29T05:55:11.062Z,32.90
2022-08-29T05:58:12.887Z,34.10
2022-08-29T06:01:25.232Z,35.50
2022-08-29T06:04:28.062Z,35.80
2022-08-29T06:07:31.062Z,34.80
2022-08-29T06:10:33.182Z,36.00
2022-08-29T06:13:35.061Z,35.10
2022-08-29T06:16:37.061Z,36.80
2022-08-29T06:19:39.852Z,36.40
2022-08-29T06:22:41.788Z,34.40
2022-08-29T06:25:43.437Z,35.80
2022-08-29T06:28:46.377Z,35.50
2022-08-29T06:31:48.169Z,36.10
2022-08-29T06:34:50.005Z,35.10
2022-08-29T06:37:51.845Z,36.70
2022-08-29T06:40:53.526Z,36.30
2022-08-29T06:43:57.022Z,34.90
2022-08-29T06:46:59.387Z,34.20
2022-08-29T06:50:01.188Z,35.70
2022-08-29T06:53:26.371Z,35.90
2022-08-29T06:56:24.754Z,37.40
2022-08-29T06:59:28.605Z,37.10
2022-08-29T07:02:30.422Z,36.90
2022-08-29T07:05:32.265Z,38.40
2022-08-29T07:08:34.943Z,36.60
2022-08-29T07:11:41.088Z,36.40
2022-08-29T07:14:43.254Z,34.30
2022-08-29T07:17:45.531Z,33.60
2022-08-29T07:20:47.450Z,32.60
2022-08-29T07:23:50.199Z,29.50
2022-08-29T07:26:52.245Z,27.90
2022-08-29T07:29:54.385Z,27.30
2022-08-29T07:32:56.227Z,25.20
2022-08-29T07:36:01.286Z,26.20
2022-08-29T07:39:06.807Z,25.00
2022-08-29T07:42:08.618Z,25.20
2022-08-29T07:45:12.197Z,23.80
2022-08-29T07:48:14.414Z,22.60
2022-08-29T07:51:18.402Z,21.70
2022-08-29T07:54:21.171Z,20.40
2022-08-29T07:57:23.692Z,19.40
2022-08-29T08:00:25.453Z,17.00
2022-08-29T08:03:27.294Z,15.00
2022-08-29T08:06:29.049Z,13.50
2022-08-29T08:09:32.822Z,10.30
2022-08-29T08:12:34.669Z,8.30
2022-08-29T08:15:38.682Z,8.10
2022-08-29T08:18:42.162Z,7.70
2022-08-29T08:21:49.632Z,6.50
2022-08-29T08:24:53.062Z,6.20
2022-08-29T08:27:54.934Z,6.20
2022-08-29T08:31:01.188Z,6.60
2022-08-29T08:34:06.466Z,6.70
2022-08-29T08:37:09.340Z,6.60
2022-08-29T08:40:19.868Z,6.90
2022-08-29T08:46:38.919Z,6.80
2022-08-29T08:49:45.803Z,6.60
2022-08-29T08:53:07.510Z,7.30
2022-08-29T08:56:26.513Z,7.40
2022-08-29T08:59:39.584Z,6.80
2022-08-29T09:02:49.489Z,6.60
2022-08-29T09:06:29.782Z,7.00
2022-08-29T09:09:59.545Z,7.10
2022-08-29T09:13:21.638Z,6.80
2022-08-29T09:16:47.042Z,6.80
2022-08-29T09:19:51.131Z,6.60
2022-08-29T09:23:03.487Z,6.00
2022-08-29T09:26:05.480Z,6.00
2022-08-29T09:29:12.046Z,6.00
2022-08-29T09:32:18.824Z,5.90
2022-08-29T09:35:42.486Z,5.50
2022-08-29T09:38:44.193Z,5.70
2022-08-29T09:41:57.770Z,6.00
2022-08-29T09:45:26.675Z,5.70
2022-08-29T09:48:31.063Z,5.40
2022-08-29T09:51:39.022Z,5.30
2022-08-29T09:54:41.751Z,5.30
2022-08-29T09:57:53.040Z,5.20
2022-08-29T10:01:05.505Z,5.80
2022-08-29T10:04:09.211Z,5.70
2022-08-29T10:07:24.423Z,5.10
2022-08-29T10:10:30.701Z,5.40
2022-08-29T10:13:53.282Z,4.70
2022-08-29T10:17:22.859Z,5.10
2022-08-29T10:20:51.166Z,4.70
2022-08-29T10:24:01.777Z,4.50
2022-08-29T10:27:32.725Z,4.50
2022-08-29T10:31:14.435Z,4.10
2022-08-29T10:34:31.613Z,4.10
2022-08-29T10:38:14.976Z,4.00
2022-08-29T10:41:39.881Z,4.40
2022-08-29T10:45:07.915Z,4.20
2022-08-29T10:48:11.859Z,4.20
2022-08-29T10:51:26.366Z,4.20
2022-08-29T10:54:43.738Z,4.10
2022-08-29T10:58:12.390Z,4.20
2022-08-29T11:01:25.985Z,4.10
2022-08-29T11:04:39.387Z,4.60
2022-08-29T11:07:51.043Z,4.20
2022-08-29T11:10:53.562Z,4.10
2022-08-29T11:14:05.568Z,4.40
2022-08-29T11:17:10.580Z,4.30
2022-08-29T11:20:40.701Z,4.50
2022-08-29T11:23:47.717Z,4.60
2022-08-29T11:27:21.593Z,5.20
2022-08-29T11:30:46.091Z,5.70
2022-08-29T11:34:08.249Z,5.50
2022-08-29T11:37:25.918Z,4.70
2022-08-29T11:44:37.871Z,5.60
2022-08-29T11:47:45.551Z,5.60
2022-08-29T11:50:49.384Z,4.90
2022-08-29T11:53:51.333Z,4.50
2022-08-29T11:57:02.351Z,6.00
2022-08-29T12:03:35.240Z,5.70
2022-08-29T12:06:57.339Z,5.70
2022-08-29T12:10:06.626Z,6.80
2022-08-29T12:13:08.475Z,6.20
2022-08-29T12:16:12.392Z,6.60
2022-08-29T12:19:47.433Z,7.50
2022-08-29T12:22:52.284Z,7.60
2022-08-29T12:26:21.081Z,7.50
2022-08-29T12:29:25.744Z,7.30
2022-08-29T12:32:46.694Z,7.00
2022-08-29T12:36:19.363Z,7.70
2022-08-29T12:39:45.858Z,6.80
2022-08-29T12:43:12.251Z,6.50
2022-08-29T12:46:30.874Z,6.10
2022-08-29T12:49:51.679Z,5.80
2022-08-29T12:53:23.884Z,6.30
2022-08-29T12:56:28.865Z,6.20
2022-08-29T12:59:30.754Z,6.30
2022-08-29T13:02:35.620Z,6.80
2022-08-29T13:05:39.486Z,6.30
2022-08-29T13:08:41.290Z,6.60
2022-08-29T13:11:43.031Z,6.40
2022-08-29T13:15:00.366Z,6.30
2022-08-29T13:18:03.250Z,6.50
2022-08-29T13:21:27.213Z,5.70
2022-08-29T13:24:29.090Z,6.90
2022-08-29T13:27:30.796Z,7.10
2022-08-29T13:30:32.443Z,7.40
2022-08-29T13:33:35.989Z,7.30
2022-08-29T13:36:52.025Z,7.30
2022-08-29T13:39:54.339Z,7.40
2022-08-29T13:42:57.017Z,8.10
2022-08-29T13:46:18.445Z,7.90
2022-08-29T13:49:26.225Z,7.40
2022-08-29T13:52:31.410Z,8.10
2022-08-29T13:55:34.640Z,8.40
2022-08-29T13:58:36.522Z,8.30
2022-08-29T14:05:00.397Z,7.60
2022-08-29T14:08:02.769Z,7.50
2022-08-29T14:11:04.561Z,7.30
2022-08-29T14:14:13.134Z,7.50
2022-08-29T14:17:18.536Z,7.60
2022-08-29T14:20:21.081Z,7.20
2022-08-29T14:23:23.370Z,7.80
2022-08-29T14:26:26.421Z,7.50
2022-08-29T14:29:30.063Z,8.00
2022-08-29T14:32:32.675Z,7.50
2022-08-29T14:35:34.925Z,7.50
2022-08-29T14:38:36.792Z,7.60
2022-08-29T14:41:38.778Z,7.60
2022-08-29T14:44:40.659Z,7.60
2022-08-29T14:47:43.607Z,6.30
2022-08-29T14:50:45.460Z,7.00
2022-08-29T14:53:54.250Z,6.90
2022-08-29T14:56:56.652Z,7.00
2022-08-29T14:59:58.405Z,7.30
2022-08-29T15:03:00.513Z,7.40
2022-08-29T15:06:05.673Z,6.70
2022-08-29T15:09:07.476Z,6.50
2022-08-29T15:12:13.444Z,6.40
2022-08-29T15:15:15.232Z,6.40
2022-08-29T15:18:42.816Z,6.40
2022-08-29T15:21:40.776Z,6.50
2022-08-29T15:24:42.706Z,5.80
2022-08-29T15:27:44.655Z,5.70
2022-08-29T15:30:47.576Z,6.40
2022-08-29T15:33:49.598Z,5.30
2022-08-29T15:36:52.231Z,5.90
2022-08-29T15:39:55.119Z,6.20
2022-08-29T15:42:57.037Z,5.80
2022-08-29T15:45:59.443Z,6.10
2022-08-29T15:49:01.878Z,6.10
2022-08-29T15:52:03.664Z,5.40
2022-08-29T15:55:06.435Z,5.60
2022-08-29T15:58:08.101Z,5.90
2022-08-29T16:01:10.471Z,5.70
2022-08-29T16:04:14.468Z,5.70
2022-08-29T16:07:17.116Z,5.50
2022-08-29T16:10:18.885Z,5.90
2022-08-29T16:13:21.309Z,5.90
2022-08-29T16:16:23.110Z,6.20
2022-08-29T16:19:24.960Z,5.40
2022-08-29T16:22:27.814Z,7.10
2022-08-29T16:25:31.136Z,5.80
2022-08-29T16:28:33.418Z,5.70
2022-08-29T16:31:36.095Z,5.80
2022-08-29T16:34:38.422Z,6.00
2022-08-29T16:37:40.401Z,5.60
2022-08-29T16:40:42.197Z,5.60
2022-08-29T16:43:45.557Z,5.70
2022-08-29T16:46:47.297Z,6.00
2022-08-29T16:49:49.003Z,6.10
2022-08-29T16:52:50.763Z,5.90
2022-08-29T16:55:52.666Z,5.70
2022-08-29T16:59:04.519Z,6.00
2022-08-29T17:02:06.777Z,6.10
2022-08-29T17:05:08.598Z,5.90
2022-08-29T17:08:10.323Z,5.80
2022-08-29T17:11:11.962Z,6.20
2022-08-29T17:14:14.538Z,6.20
2022-08-29T17:17:16.389Z,6.10
2022-08-29T17:20:20.346Z,6.40
2022-08-29T17:23:22.194Z,6.70
2022-08-29T17:26:24.179Z,6.50
2022-08-29T17:29:25.988Z,6.00
2022-08-29T17:32:28.511Z,6.60
2022-08-29T17:35:31.289Z,7.00
2022-08-29T17:38:33.580Z,6.60
2022-08-29T17:41:37.632Z,6.90
2022-08-29T17:44:39.507Z,6.20
2022-08-29T17:47:41.375Z,6.90
2022-08-29T17:50:43.774Z,6.90
2022-08-29T17:53:45.724Z,6.90
2022-08-29T17:56:54.028Z,6.60
2022-08-29T17:59:56.019Z,7.10
2022-08-29T18:02:58.490Z,6.70
2022-08-29T18:06:00.261Z,7.10
2022-08-29T18:09:02.244Z,6.50
2022-08-29T18:12:04.257Z,6.50
2022-08-29T18:15:07.379Z,7.10
2022-08-29T18:18:09.757Z,7.50
2022-08-29T18:21:16.455Z,6.50
2022-08-29T18:24:20.089Z,6.20
2022-08-29T18:27:22.459Z,5.80
2022-08-29T18:30:24.381Z,6.40
2022-08-29T18:33:38.864Z,5.80
2022-08-29T18:36:49.144Z,6.60
2022-08-29T18:39:50.976Z,6.30
2022-08-29T18:42:52.838Z,6.60
2022-08-29T18:45:55.402Z,6.00
2022-08-29T18:48:57.477Z,6.50
2022-08-29T18:51:59.154Z,7.10
2022-08-29T18:55:00.915Z,6.90
2022-08-29T18:58:02.792Z,7.20
2022-08-29T19:01:27.107Z,7.30
2022-08-29T19:04:30.009Z,7.70
2022-08-29T19:07:31.889Z,7.40
2022-08-29T19:10:34.282Z,7.00
2022-08-29T19:13:36.118Z,7.90
2022-08-29T19:16:39.648Z,8.20
2022-08-29T19:20:00.166Z,7.20
2022-08-29T19:23:03.656Z,8.00
2022-08-29T19:26:09.022Z,7.90
2022-08-29T19:29:13.514Z,8.60
2022-08-29T19:32:15.337Z,8.60
2022-08-29T19:35:17.221Z,10.10
2022-08-29T19:38:20.585Z,12.70
2022-08-29T19:41:22.478Z,9.60
2022-08-29T19:44:24.599Z,9.80
2022-08-29T19:47:26.364Z,9.50
2022-08-29T19:50:28.154Z,10.30
2022-08-29T19:53:29.926Z,10.90
2022-08-29T19:56:33.620Z,10.60
2022-08-29T19:59:35.561Z,10.40
2022-08-29T20:02:37.558Z,10.10
2022-08-29T20:05:39.678Z,10.50
2022-08-29T20:08:43.677Z,10.60
2022-08-29T20:11:45.711Z,10.40
2022-08-29T20:14:50.209Z,10.80
2022-08-29T20:17:51.953Z,11.60
2022-08-29T20:20:55.545Z,10.40
2022-08-29T20:23:58.398Z,11.60
2022-08-29T20:27:01.589Z,10.60
2022-08-29T20:30:06.293Z,10.40
2022-08-29T20:33:08.213Z,11.20
2022-08-29T20:36:34.522Z,11.20
2022-08-29T20:39:46.418Z,11.80
2022-08-29T20:42:48.215Z,11.60
2022-08-29T20:45:49.983Z,12.80
2022-08-29T20:48:51.675Z,13.30
2022-08-29T20:51:53.409Z,12.60
2022-08-29T20:54:55.208Z,12.20
2022-08-29T20:57:57.018Z,13.50
2022-08-29T21:01:00.763Z,11.80
2022-08-29T21:04:23.074Z,11.30
2022-08-29T21:07:25.917Z,10.70
2022-08-29T21:10:27.710Z,10.20
2022-08-29T21:13:29.540Z,11.00
2022-08-29T21:16:31.503Z,10.10
2022-08-29T21:19:34.597Z,10.40
2022-08-29T21:22:36.321Z,10.40
2022-08-29T21:25:40.293Z,12.30
2022-08-29T21:28:44.355Z,12.00
2022-08-29T21:31:50.585Z,12.50
2022-08-29T21:34:52.441Z,13.20
2022-08-29T21:37:54.306Z,12.60
2022-08-29T21:40:58.750Z,13.10
2022-08-29T21:44:00.508Z,12.70
2022-08-29T21:47:03.035Z,12.00
2022-08-29T21:50:06.011Z,11.30
2022-08-29T21:53:08.007Z,12.60
2022-08-29T21:56:09.702Z,12.10
2022-08-29T21:59:12.401Z,11.00
2022-08-29T22:02:15.223Z,11.30
2022-08-29T22:05:17.083Z,11.80
2022-08-29T22:08:21.027Z,11.00
2022-08-29T22:11:29.458Z,10.70
2022-08-29T22:14:58.134Z,11.10
2022-08-29T22:18:00.170Z,11.00
2022-08-29T22:21:02.574Z,11.20
2022-08-29T22:24:06.778Z,11.60
2022-08-29T22:27:08.542Z,11.80
2022-08-29T22:30:12.091Z,12.90
2022-08-29T22:33:16.418Z,10.50
2022-08-29T22:36:19.300Z,10.80
2022-08-29T22:39:21.060Z,10.50
2022-08-29T22:42:22.959Z,10.80
2022-08-29T22:45:25.948Z,8.70
2022-08-29T22:48:27.706Z,8.70
2022-08-29T22:51:29.748Z,9.30
2022-08-29T22:54:37.635Z,9.30
2022-08-29T22:57:40.825Z,9.80
2022-08-29T23:00:42.702Z,11.40
2022-08-29T23:03:45.339Z,11.50
2022-08-29T23:06:56.585Z,10.40
2022-08-29T23:09:58.392Z,11.30
2022-08-29T23:13:00.085Z,11.60
2022-08-29T23:16:01.858Z,8.10
2022-08-29T23:19:04.280Z,9.50
2022-08-29T23:22:07.518Z,11.50
2022-08-29T23:25:10.021Z,10.40
2022-08-29T23:28:11.816Z,10.70
2022-08-29T23:31:15.419Z,9.80
2022-08-29T23:34:17.551Z,9.80
2022-08-29T23:37:19.426Z,11.90
2022-08-29T23:40:21.226Z,12.10
2022-08-29T23:43:24.778Z,12.60
2022-08-29T23:46:26.743Z,13.80
2022-08-29T23:49:29.019Z,14.40
2022-08-29T23:52:30.829Z,14.60
2022-08-29T23:55:32.608Z,18.80
2022-08-29T23:58:34.390Z,16.70
